sensor_id;sensor_type;location;lat;lon;timestamp;pressure;altitude;pressure_sealevel;temperature;humidity
32853;BME280;20515;51.704;5.700;2022-07-29T00:00:09;53643.72;;;-143.74;100.00
32853;BME280;20515;51.704;5.700;2022-07-29T00:02:34;53643.72;;;-143.74;100.00
32853;BME280;20515;51.704;5.700;2022-07-29T00:05:00;53645.75;;;-143.74;100.00
32853;BME280;20515;51.704;5.700;2022-07-29T00:07:26;53645.75;;;-143.74;100.00
32853;BME280;20515;51.704;5.700;2022-07-29T00:09:51;53647.81;;;-143.74;100.00
32853;BME280;20515;51.704;5.700;2022-07-29T00:12:17;53645.75;;;-143.74;100.00
32853;BME280;20515;51.704;5.700;2022-07-29T00:14:42;53643.72;;;-143.74;100.00
32853;BME280;20515;51.704;5.700;2022-07-29T00:17:07;53643.72;;;-143.74;100.00
32853;BME280;20515;51.704;5.700;2022-07-29T00:19:33;53647.81;;;-143.74;100.00
32853;BME280;20515;51.704;5.700;2022-07-29T00:21:59;53645.75;;;-143.74;100.00
32853;BME280;20515;51.704;5.700;2022-07-29T00:24:24;53647.81;;;-143.74;100.00
32853;BME280;20515;51.704;5.700;2022-07-29T00:26:50;53643.72;;;-143.74;100.00
32853;BME280;20515;51.704;5.700;2022-07-29T00:29:15;53645.75;;;-143.74;100.00
32853;BME280;20515;51.704;5.700;2022-07-29T00:31:40;53645.75;;;-143.74;100.00
32853;BME280;20515;51.704;5.700;2022-07-29T00:34:06;53645.75;;;-143.74;100.00
32853;BME280;20515;51.704;5.700;2022-07-29T00:36:51;53647.81;;;-143.74;100.00
32853;BME280;20515;51.704;5.700;2022-07-29T00:39:16;53645.75;;;-143.74;100.00
32853;BME280;20515;51.704;5.700;2022-07-29T00:41:41;53647.81;;;-143.74;100.00
32853;BME280;20515;51.704;5.700;2022-07-29T00:44:07;53645.75;;;-143.74;100.00
32853;BME280;20515;51.704;5.700;2022-07-29T00:46:32;53645.75;;;-143.74;100.00
32853;BME280;20515;51.704;5.700;2022-07-29T00:48:57;53647.81;;;-143.74;100.00
32853;BME280;20515;51.704;5.700;2022-07-29T00:51:25;53645.75;;;-143.74;100.00
32853;BME280;20515;51.704;5.700;2022-07-29T00:53:51;53643.72;;;-143.74;100.00
32853;BME280;20515;51.704;5.700;2022-07-29T00:56:17;53641.69;;;-143.74;100.00
32853;BME280;20515;51.704;5.700;2022-07-29T00:58:43;53645.75;;;-143.74;100.00
32853;BME280;20515;51.704;5.700;2022-07-29T01:01:08;53645.75;;;-143.74;100.00
32853;BME280;20515;51.704;5.700;2022-07-29T01:03:34;53647.81;;;-143.74;100.00
32853;BME280;20515;51.704;5.700;2022-07-29T01:05:59;53643.72;;;-143.74;100.00
32853;BME280;20515;51.704;5.700;2022-07-29T01:08:25;53641.69;;;-143.74;100.00
32853;BME280;20515;51.704;5.700;2022-07-29T01:10:50;53647.81;;;-143.74;100.00
32853;BME280;20515;51.704;5.700;2022-07-29T01:13:17;53643.72;;;-143.74;100.00
32853;BME280;20515;51.704;5.700;2022-07-29T01:15:52;53645.75;;;-143.74;100.00
32853;BME280;20515;51.704;5.700;2022-07-29T01:21:23;53643.72;;;-143.74;100.00
32853;BME280;20515;51.704;5.700;2022-07-29T01:26:47;53645.75;;;-143.74;100.00
32853;BME280;20515;51.704;5.700;2022-07-29T01:29:26;53643.72;;;-143.74;100.00
32853;BME280;20515;51.704;5.700;2022-07-29T01:32:07;53647.81;;;-143.74;100.00
32853;BME280;20515;51.704;5.700;2022-07-29T01:34:41;53645.75;;;-143.74;100.00
32853;BME280;20515;51.704;5.700;2022-07-29T01:37:18;53643.72;;;-143.74;100.00
32853;BME280;20515;51.704;5.700;2022-07-29T01:39:46;53643.72;;;-143.74;100.00
32853;BME280;20515;51.704;5.700;2022-07-29T01:42:19;53645.75;;;-143.74;100.00
32853;BME280;20515;51.704;5.700;2022-07-29T01:44:53;53653.91;;;-143.74;100.00
32853;BME280;20515;51.704;5.700;2022-07-29T01:47:23;53647.81;;;-143.74;100.00
32853;BME280;20515;51.704;5.700;2022-07-29T01:49:54;53643.72;;;-143.74;100.00
32853;BME280;20515;51.704;5.700;2022-07-29T01:52:38;53645.75;;;-143.74;100.00
32853;BME280;20515;51.704;5.700;2022-07-29T01:55:09;53647.81;;;-143.74;100.00
32853;BME280;20515;51.704;5.700;2022-07-29T01:57:38;53641.69;;;-143.74;100.00
32853;BME280;20515;51.704;5.700;2022-07-29T02:00:06;53645.75;;;-143.74;100.00
32853;BME280;20515;51.704;5.700;2022-07-29T02:02:33;53647.81;;;-143.74;100.00
32853;BME280;20515;51.704;5.700;2022-07-29T02:05:01;53645.75;;;-143.74;100.00
32853;BME280;20515;51.704;5.700;2022-07-29T02:07:29;53651.88;;;-143.74;100.00
32853;BME280;20515;51.704;5.700;2022-07-29T02:09:57;53643.72;;;-143.74;100.00
32853;BME280;20515;51.704;5.700;2022-07-29T02:12:24;53645.75;;;-143.74;100.00
32853;BME280;20515;51.704;5.700;2022-07-29T02:14:52;53645.75;;;-143.74;100.00
32853;BME280;20515;51.704;5.700;2022-07-29T02:17:24;53647.81;;;-143.74;100.00
32853;BME280;20515;51.704;5.700;2022-07-29T02:19:52;53643.72;;;-143.74;100.00
32853;BME280;20515;51.704;5.700;2022-07-29T02:22:19;53649.84;;;-143.74;100.00
32853;BME280;20515;51.704;5.700;2022-07-29T02:24:46;53647.81;;;-143.74;100.00
32853;BME280;20515;51.704;5.700;2022-07-29T02:27:14;53645.75;;;-143.74;100.00
32853;BME280;20515;51.704;5.700;2022-07-29T02:29:40;53647.81;;;-143.74;100.00
32853;BME280;20515;51.704;5.700;2022-07-29T02:32:07;53645.75;;;-143.74;100.00
32853;BME280;20515;51.704;5.700;2022-07-29T02:34:35;53647.81;;;-143.74;100.00
32853;BME280;20515;51.704;5.700;2022-07-29T02:37:02;53645.75;;;-143.74;100.00
32853;BME280;20515;51.704;5.700;2022-07-29T02:39:29;53639.63;;;-143.74;100.00
32853;BME280;20515;51.704;5.700;2022-07-29T02:41:58;53645.75;;;-143.74;100.00
32853;BME280;20515;51.704;5.700;2022-07-29T02:44:27;53641.69;;;-143.74;100.00
32853;BME280;20515;51.704;5.700;2022-07-29T02:47:01;53643.72;;;-143.74;100.00
32853;BME280;20515;51.704;5.700;2022-07-29T02:49:39;53645.75;;;-143.74;100.00
32853;BME280;20515;51.704;5.700;2022-07-29T02:52:24;53641.69;;;-143.74;100.00
32853;BME280;20515;51.704;5.700;2022-07-29T02:54:54;53649.84;;;-143.74;100.00
32853;BME280;20515;51.704;5.700;2022-07-29T02:57:33;53645.75;;;-143.74;100.00
32853;BME280;20515;51.704;5.700;2022-07-29T03:00:03;53647.81;;;-143.74;100.00
32853;BME280;20515;51.704;5.700;2022-07-29T03:02:33;53645.75;;;-143.74;100.00
32853;BME280;20515;51.704;5.700;2022-07-29T03:05:00;53647.81;;;-143.74;100.00
32853;BME280;20515;51.704;5.700;2022-07-29T03:07:26;53647.81;;;-143.74;100.00
32853;BME280;20515;51.704;5.700;2022-07-29T03:09:52;53647.81;;;-143.74;100.00
32853;BME280;20515;51.704;5.700;2022-07-29T03:12:19;53649.84;;;-143.74;100.00
32853;BME280;20515;51.704;5.700;2022-07-29T03:14:44;53641.69;;;-143.74;100.00
32853;BME280;20515;51.704;5.700;2022-07-29T03:17:11;53645.75;;;-143.74;100.00
32853;BME280;20515;51.704;5.700;2022-07-29T03:19:37;53647.81;;;-143.74;100.00
32853;BME280;20515;51.704;5.700;2022-07-29T03:22:03;53647.81;;;-143.74;100.00
32853;BME280;20515;51.704;5.700;2022-07-29T03:24:34;53641.69;;;-143.74;100.00
32853;BME280;20515;51.704;5.700;2022-07-29T03:27:00;53649.84;;;-143.74;100.00
32853;BME280;20515;51.704;5.700;2022-07-29T03:29:26;53645.75;;;-143.74;100.00
32853;BME280;20515;51.704;5.700;2022-07-29T03:31:52;53647.81;;;-143.74;100.00
32853;BME280;20515;51.704;5.700;2022-07-29T03:34:18;53643.72;;;-143.74;100.00
32853;BME280;20515;51.704;5.700;2022-07-29T03:36:43;53643.72;;;-143.74;100.00
32853;BME280;20515;51.704;5.700;2022-07-29T03:39:10;53647.81;;;-143.74;100.00
32853;BME280;20515;51.704;5.700;2022-07-29T03:41:38;53649.84;;;-143.74;100.00
32853;BME280;20515;51.704;5.700;2022-07-29T03:44:06;53643.72;;;-143.74;100.00
32853;BME280;20515;51.704;5.700;2022-07-29T03:46:34;53653.91;;;-143.74;100.00
32853;BME280;20515;51.704;5.700;2022-07-29T03:49:03;53647.81;;;-143.74;100.00
32853;BME280;20515;51.704;5.700;2022-07-29T03:51:29;53645.75;;;-143.74;100.00
32853;BME280;20515;51.704;5.700;2022-07-29T03:53:54;53649.84;;;-143.74;100.00
32853;BME280;20515;51.704;5.700;2022-07-29T03:56:21;53647.81;;;-143.74;100.00
32853;BME280;20515;51.704;5.700;2022-07-29T03:58:50;53645.75;;;-143.74;100.00
32853;BME280;20515;51.704;5.700;2022-07-29T04:01:17;53647.81;;;-143.74;100.00
32853;BME280;20515;51.704;5.700;2022-07-29T04:03:43;53645.75;;;-143.74;100.00
32853;BME280;20515;51.704;5.700;2022-07-29T04:06:10;53645.75;;;-143.74;100.00
32853;BME280;20515;51.704;5.700;2022-07-29T04:08:36;53643.72;;;-143.74;100.00
32853;BME280;20515;51.704;5.700;2022-07-29T04:11:03;53645.75;;;-143.74;100.00
32853;BME280;20515;51.704;5.700;2022-07-29T04:13:29;53649.84;;;-143.74;100.00
32853;BME280;20515;51.704;5.700;2022-07-29T04:15:54;53643.72;;;-143.74;100.00
32853;BME280;20515;51.704;5.700;2022-07-29T04:18:19;53647.81;;;-143.74;100.00
32853;BME280;20515;51.704;5.700;2022-07-29T04:20:45;53649.84;;;-143.74;100.00
32853;BME280;20515;51.704;5.700;2022-07-29T04:23:10;53643.72;;;-143.74;100.00
32853;BME280;20515;51.704;5.700;2022-07-29T04:25:40;53643.72;;;-143.74;100.00
32853;BME280;20515;51.704;5.700;2022-07-29T04:28:06;53645.75;;;-143.74;100.00
32853;BME280;20515;51.704;5.700;2022-07-29T04:30:32;53641.69;;;-143.74;100.00
32853;BME280;20515;51.704;5.700;2022-07-29T04:32:58;53647.81;;;-143.74;100.00
32853;BME280;20515;51.704;5.700;2022-07-29T04:35:26;53645.75;;;-143.74;100.00
32853;BME280;20515;51.704;5.700;2022-07-29T04:37:51;53647.81;;;-143.74;100.00
32853;BME280;20515;51.704;5.700;2022-07-29T04:40:16;53647.81;;;-143.74;100.00
32853;BME280;20515;51.704;5.700;2022-07-29T04:42:42;53645.75;;;-143.74;100.00
32853;BME280;20515;51.704;5.700;2022-07-29T04:45:07;53647.81;;;-143.74;100.00
32853;BME280;20515;51.704;5.700;2022-07-29T04:47:32;53647.81;;;-143.74;100.00
32853;BME280;20515;51.704;5.700;2022-07-29T04:49:58;53647.81;;;-143.74;100.00
32853;BME280;20515;51.704;5.700;2022-07-29T04:52:23;53649.84;;;-143.74;100.00
32853;BME280;20515;51.704;5.700;2022-07-29T04:54:49;53649.84;;;-143.74;100.00
32853;BME280;20515;51.704;5.700;2022-07-29T04:57:14;53645.75;;;-143.74;100.00
32853;BME280;20515;51.704;5.700;2022-07-29T04:59:39;53649.84;;;-143.74;100.00
32853;BME280;20515;51.704;5.700;2022-07-29T05:02:05;53633.50;;;-143.74;100.00
32853;BME280;20515;51.704;5.700;2022-07-29T05:04:30;53643.72;;;-143.74;100.00
32853;BME280;20515;51.704;5.700;2022-07-29T05:06:55;53647.81;;;-143.74;100.00
32853;BME280;20515;51.704;5.700;2022-07-29T05:09:20;53645.75;;;-143.74;100.00
32853;BME280;20515;51.704;5.700;2022-07-29T05:11:46;53647.81;;;-143.74;100.00
32853;BME280;20515;51.704;5.700;2022-07-29T05:14:11;53647.81;;;-143.74;100.00
32853;BME280;20515;51.704;5.700;2022-07-29T05:16:36;53645.75;;;-143.74;100.00
32853;BME280;20515;51.704;5.700;2022-07-29T05:19:02;53647.81;;;-143.74;100.00
32853;BME280;20515;51.704;5.700;2022-07-29T05:21:27;53645.75;;;-143.74;100.00
32853;BME280;20515;51.704;5.700;2022-07-29T05:23:52;53645.75;;;-143.74;100.00
32853;BME280;20515;51.704;5.700;2022-07-29T05:26:18;53649.84;;;-143.74;100.00
32853;BME280;20515;51.704;5.700;2022-07-29T05:28:43;53651.88;;;-143.74;100.00
32853;BME280;20515;51.704;5.700;2022-07-29T05:31:08;53641.69;;;-143.74;100.00
32853;BME280;20515;51.704;5.700;2022-07-29T05:33:34;53645.75;;;-143.74;100.00
32853;BME280;20515;51.704;5.700;2022-07-29T05:35:59;53645.75;;;-143.74;100.00
32853;BME280;20515;51.704;5.700;2022-07-29T05:38:25;53645.75;;;-143.74;100.00
32853;BME280;20515;51.704;5.700;2022-07-29T05:40:50;53643.72;;;-143.74;100.00
32853;BME280;20515;51.704;5.700;2022-07-29T05:43:15;53647.81;;;-143.74;100.00
32853;BME280;20515;51.704;5.700;2022-07-29T05:45:40;53647.81;;;-143.74;100.00
32853;BME280;20515;51.704;5.700;2022-07-29T05:48:06;53645.75;;;-143.74;100.00
32853;BME280;20515;51.704;5.700;2022-07-29T05:50:31;53649.84;;;-143.74;100.00
32853;BME280;20515;51.704;5.700;2022-07-29T05:52:56;53643.72;;;-143.74;100.00
32853;BME280;20515;51.704;5.700;2022-07-29T05:55:21;53647.81;;;-143.74;100.00
32853;BME280;20515;51.704;5.700;2022-07-29T05:57:47;53643.72;;;-143.74;100.00
32853;BME280;20515;51.704;5.700;2022-07-29T06:00:12;53645.75;;;-143.74;100.00
32853;BME280;20515;51.704;5.700;2022-07-29T06:02:38;53645.75;;;-143.74;100.00
32853;BME280;20515;51.704;5.700;2022-07-29T06:05:03;53647.81;;;-143.74;100.00
32853;BME280;20515;51.704;5.700;2022-07-29T06:07:28;53647.81;;;-143.74;100.00
32853;BME280;20515;51.704;5.700;2022-07-29T06:09:54;53645.75;;;-143.74;100.00
32853;BME280;20515;51.704;5.700;2022-07-29T06:12:19;53635.53;;;-143.74;100.00
32853;BME280;20515;51.704;5.700;2022-07-29T06:14:45;53647.81;;;-143.74;100.00
32853;BME280;20515;51.704;5.700;2022-07-29T06:17:10;53647.81;;;-143.74;100.00
32853;BME280;20515;51.704;5.700;2022-07-29T06:19:37;53645.75;;;-143.74;100.00
32853;BME280;20515;51.704;5.700;2022-07-29T06:22:02;53639.63;;;-143.74;100.00
32853;BME280;20515;51.704;5.700;2022-07-29T06:24:28;53645.75;;;-143.74;100.00
32853;BME280;20515;51.704;5.700;2022-07-29T06:26:53;53666.19;;;-143.74;100.00
32853;BME280;20515;51.704;5.700;2022-07-29T06:29:18;53639.63;;;-143.74;100.00
32853;BME280;20515;51.704;5.700;2022-07-29T06:31:43;53647.81;;;-143.74;100.00
32853;BME280;20515;51.704;5.700;2022-07-29T06:34:09;53647.81;;;-143.74;100.00
32853;BME280;20515;51.704;5.700;2022-07-29T06:36:35;53645.75;;;-143.74;100.00
32853;BME280;20515;51.704;5.700;2022-07-29T06:39:06;53645.75;;;-143.74;100.00
32853;BME280;20515;51.704;5.700;2022-07-29T06:41:32;53645.75;;;-143.74;100.00
32853;BME280;20515;51.704;5.700;2022-07-29T06:43:58;53645.75;;;-143.74;100.00
32853;BME280;20515;51.704;5.700;2022-07-29T06:46:24;53643.72;;;-143.74;100.00
32853;BME280;20515;51.704;5.700;2022-07-29T06:48:50;53645.75;;;-143.74;100.00
32853;BME280;20515;51.704;5.700;2022-07-29T06:51:16;53641.69;;;-143.74;100.00
32853;BME280;20515;51.704;5.700;2022-07-29T06:53:42;53649.84;;;-143.74;100.00
32853;BME280;20515;51.704;5.700;2022-07-29T06:56:07;53645.75;;;-143.74;100.00
32853;BME280;20515;51.704;5.700;2022-07-29T06:58:37;53643.72;;;-143.74;100.00
32853;BME280;20515;51.704;5.700;2022-07-29T07:01:04;53647.81;;;-143.74;100.00
32853;BME280;20515;51.704;5.700;2022-07-29T07:03:30;53647.81;;;-143.74;100.00
32853;BME280;20515;51.704;5.700;2022-07-29T07:05:55;53641.69;;;-143.74;100.00
32853;BME280;20515;51.704;5.700;2022-07-29T07:08:21;53647.81;;;-143.74;100.00
32853;BME280;20515;51.704;5.700;2022-07-29T07:10:47;53647.81;;;-143.74;100.00
32853;BME280;20515;51.704;5.700;2022-07-29T07:13:13;53647.81;;;-143.74;100.00
32853;BME280;20515;51.704;5.700;2022-07-29T07:15:39;53647.81;;;-143.74;100.00
32853;BME280;20515;51.704;5.700;2022-07-29T07:18:05;53643.72;;;-143.74;100.00
32853;BME280;20515;51.704;5.700;2022-07-29T07:20:32;53645.75;;;-143.74;100.00
32853;BME280;20515;51.704;5.700;2022-07-29T07:22:57;53643.72;;;-143.74;100.00
32853;BME280;20515;51.704;5.700;2022-07-29T07:25:22;53645.75;;;-143.74;100.00
32853;BME280;20515;51.704;5.700;2022-07-29T07:27:48;53643.72;;;-143.74;100.00
32853;BME280;20515;51.704;5.700;2022-07-29T07:30:13;53645.75;;;-143.74;100.00
32853;BME280;20515;51.704;5.700;2022-07-29T07:32:39;53639.63;;;-143.74;100.00
32853;BME280;20515;51.704;5.700;2022-07-29T07:35:06;53645.75;;;-143.74;100.00
32853;BME280;20515;51.704;5.700;2022-07-29T07:37:32;53643.72;;;-143.74;100.00
32853;BME280;20515;51.704;5.700;2022-07-29T07:39:57;53637.59;;;-143.74;100.00
32853;BME280;20515;51.704;5.700;2022-07-29T07:42:23;53647.81;;;-143.74;100.00
32853;BME280;20515;51.704;5.700;2022-07-29T07:44:48;53645.75;;;-143.74;100.00
32853;BME280;20515;51.704;5.700;2022-07-29T07:47:14;53641.69;;;-143.74;100.00
32853;BME280;20515;51.704;5.700;2022-07-29T07:49:44;53649.84;;;-143.74;100.00
32853;BME280;20515;51.704;5.700;2022-07-29T07:52:09;53645.75;;;-143.74;100.00
32853;BME280;20515;51.704;5.700;2022-07-29T07:54:35;53645.75;;;-143.74;100.00
32853;BME280;20515;51.704;5.700;2022-07-29T07:57:00;53643.72;;;-143.74;100.00
32853;BME280;20515;51.704;5.700;2022-07-29T07:59:26;53647.81;;;-143.74;100.00
32853;BME280;20515;51.704;5.700;2022-07-29T08:01:51;53649.84;;;-143.74;100.00
32853;BME280;20515;51.704;5.700;2022-07-29T08:04:16;53643.72;;;-143.74;100.00
32853;BME280;20515;51.704;5.700;2022-07-29T08:06:42;53645.75;;;-143.74;100.00
32853;BME280;20515;51.704;5.700;2022-07-29T08:09:07;53649.84;;;-143.74;100.00
32853;BME280;20515;51.704;5.700;2022-07-29T08:11:32;53643.72;;;-143.74;100.00
32853;BME280;20515;51.704;5.700;2022-07-29T08:13:58;53643.72;;;-143.74;100.00
32853;BME280;20515;51.704;5.700;2022-07-29T08:16:23;53649.84;;;-143.74;100.00
32853;BME280;20515;51.704;5.700;2022-07-29T08:18:50;53647.81;;;-143.74;100.00
32853;BME280;20515;51.704;5.700;2022-07-29T08:21:16;53645.75;;;-143.74;100.00
32853;BME280;20515;51.704;5.700;2022-07-29T08:23:43;53643.72;;;-143.74;100.00
32853;BME280;20515;51.704;5.700;2022-07-29T08:26:15;53645.75;;;-143.74;100.00
32853;BME280;20515;51.704;5.700;2022-07-29T08:28:42;53643.72;;;-143.74;100.00
32853;BME280;20515;51.704;5.700;2022-07-29T08:31:13;53643.72;;;-143.74;100.00
32853;BME280;20515;51.704;5.700;2022-07-29T08:33:39;53658.00;;;-143.74;100.00
32853;BME280;20515;51.704;5.700;2022-07-29T08:36:05;53643.72;;;-143.74;100.00
32853;BME280;20515;51.704;5.700;2022-07-29T08:38:31;53643.72;;;-143.74;100.00
32853;BME280;20515;51.704;5.700;2022-07-29T08:40:57;53643.72;;;-143.74;100.00
32853;BME280;20515;51.704;5.700;2022-07-29T08:43:23;53643.72;;;-143.74;100.00
32853;BME280;20515;51.704;5.700;2022-07-29T08:45:50;53643.72;;;-143.74;100.00
32853;BME280;20515;51.704;5.700;2022-07-29T08:48:19;53647.81;;;-143.74;100.00
32853;BME280;20515;51.704;5.700;2022-07-29T08:50:46;53645.75;;;-143.74;100.00
32853;BME280;20515;51.704;5.700;2022-07-29T08:53:14;53643.72;;;-143.74;100.00
32853;BME280;20515;51.704;5.700;2022-07-29T08:55:42;53643.72;;;-143.74;100.00
32853;BME280;20515;51.704;5.700;2022-07-29T08:58:08;53645.75;;;-143.74;100.00
32853;BME280;20515;51.704;5.700;2022-07-29T09:00:35;53639.63;;;-143.74;100.00
32853;BME280;20515;51.704;5.700;2022-07-29T09:03:02;53645.75;;;-143.74;100.00
32853;BME280;20515;51.704;5.700;2022-07-29T09:05:29;53641.69;;;-143.74;100.00
32853;BME280;20515;51.704;5.700;2022-07-29T09:07:55;53641.69;;;-143.74;100.00
32853;BME280;20515;51.704;5.700;2022-07-29T09:10:21;53647.81;;;-143.74;100.00
32853;BME280;20515;51.704;5.700;2022-07-29T09:12:46;53643.72;;;-143.74;100.00
32853;BME280;20515;51.704;5.700;2022-07-29T09:15:12;53643.72;;;-143.74;100.00
32853;BME280;20515;51.704;5.700;2022-07-29T09:17:55;53645.75;;;-143.74;100.00
32853;BME280;20515;51.704;5.700;2022-07-29T09:20:22;53643.72;;;-143.74;100.00
32853;BME280;20515;51.704;5.700;2022-07-29T09:22:49;53645.75;;;-143.74;100.00
32853;BME280;20515;51.704;5.700;2022-07-29T09:25:36;53647.81;;;-143.74;100.00
32853;BME280;20515;51.704;5.700;2022-07-29T09:28:10;53643.72;;;-143.74;100.00
32853;BME280;20515;51.704;5.700;2022-07-29T09:30:41;53645.75;;;-143.74;100.00
32853;BME280;20515;51.704;5.700;2022-07-29T09:33:14;53643.72;;;-143.74;100.00
32853;BME280;20515;51.704;5.700;2022-07-29T09:35:39;53645.75;;;-143.74;100.00
32853;BME280;20515;51.704;5.700;2022-07-29T09:38:14;53645.75;;;-143.74;100.00
32853;BME280;20515;51.704;5.700;2022-07-29T09:40:40;53647.81;;;-143.74;100.00
32853;BME280;20515;51.704;5.700;2022-07-29T09:43:12;53643.72;;;-143.74;100.00
32853;BME280;20515;51.704;5.700;2022-07-29T09:45:38;53645.75;;;-143.74;100.00
32853;BME280;20515;51.704;5.700;2022-07-29T09:48:17;53645.75;;;-143.74;100.00
32853;BME280;20515;51.704;5.700;2022-07-29T09:50:44;53639.63;;;-143.74;100.00
32853;BME280;20515;51.704;5.700;2022-07-29T09:53:10;53643.72;;;-143.74;100.00
32853;BME280;20515;51.704;5.700;2022-07-29T09:55:49;53641.69;;;-143.74;100.00
32853;BME280;20515;51.704;5.700;2022-07-29T09:58:20;53645.75;;;-143.74;100.00
32853;BME280;20515;51.704;5.700;2022-07-29T10:00:46;53639.63;;;-143.74;100.00
32853;BME280;20515;51.704;5.700;2022-07-29T10:03:12;53641.69;;;-143.74;100.00
32853;BME280;20515;51.704;5.700;2022-07-29T10:05:38;53645.75;;;-143.74;97.91
32853;BME280;20515;51.704;5.700;2022-07-29T10:08:04;53643.72;;;-143.74;99.79
32853;BME280;20515;51.704;5.700;2022-07-29T10:10:32;53639.63;;;-143.74;94.42
32853;BME280;20515;51.704;5.700;2022-07-29T10:13:09;53641.69;;;-143.74;95.83
32853;BME280;20515;51.704;5.700;2022-07-29T10:15:37;53643.72;;;-143.74;93.04
32853;BME280;20515;51.704;5.700;2022-07-29T10:18:04;53643.72;;;-143.74;91.13
32853;BME280;20515;51.704;5.700;2022-07-29T10:20:30;53643.72;;;-143.74;85.33
32853;BME280;20515;51.704;5.700;2022-07-29T10:22:56;53643.72;;;-143.74;91.15
32853;BME280;20515;51.704;5.700;2022-07-29T10:25:22;53641.69;;;-143.74;90.86
32853;BME280;20515;51.704;5.700;2022-07-29T10:27:48;53641.69;;;-143.74;83.11
32853;BME280;20515;51.704;5.700;2022-07-29T10:30:16;53643.72;;;-143.74;78.71
32853;BME280;20515;51.704;5.700;2022-07-29T10:35:31;53647.81;;;-143.74;83.53
32853;BME280;20515;51.704;5.700;2022-07-29T10:38:31;53643.72;;;-143.74;83.18
32853;BME280;20515;51.704;5.700;2022-07-29T10:41:03;53639.63;;;-143.74;84.01
32853;BME280;20515;51.704;5.700;2022-07-29T10:43:56;53641.69;;;-143.74;71.39
32853;BME280;20515;51.704;5.700;2022-07-29T10:46:22;53639.63;;;-143.74;71.97
32853;BME280;20515;51.704;5.700;2022-07-29T10:49:13;53641.69;;;-143.74;73.28
32853;BME280;20515;51.704;5.700;2022-07-29T10:52:01;53637.59;;;-143.74;74.39
32853;BME280;20515;51.704;5.700;2022-07-29T11:07:21;53641.69;;;-143.74;70.82
32853;BME280;20515;51.704;5.700;2022-07-29T11:10:27;53641.69;;;-143.74;64.56
32853;BME280;20515;51.704;5.700;2022-07-29T11:12:51;53643.72;;;-143.74;67.70
32853;BME280;20515;51.704;5.700;2022-07-29T11:15:21;53639.63;;;-143.74;64.05
32853;BME280;20515;51.704;5.700;2022-07-29T11:29:03;53641.69;;;-143.74;65.28
32853;BME280;20515;51.704;5.700;2022-07-29T11:31:46;53643.72;;;-143.74;66.03
32853;BME280;20515;51.704;5.700;2022-07-29T11:39:31;53641.69;;;-143.74;64.93
32853;BME280;20515;51.704;5.700;2022-07-29T11:45:07;53639.63;;;-143.74;66.98
32853;BME280;20515;51.704;5.700;2022-07-29T11:47:49;53645.75;;;-143.74;67.85
32853;BME280;20515;51.704;5.700;2022-07-29T11:50:28;53641.69;;;-143.74;64.94
32853;BME280;20515;51.704;5.700;2022-07-29T11:52:54;53641.69;;;-143.74;67.62
32853;BME280;20515;51.704;5.700;2022-07-29T11:55:22;53637.59;;;-143.74;70.11
32853;BME280;20515;51.704;5.700;2022-07-29T11:57:53;53641.69;;;-143.74;69.82
32853;BME280;20515;51.704;5.700;2022-07-29T12:00:24;53643.72;;;-143.74;71.67
32853;BME280;20515;51.704;5.700;2022-07-29T12:02:50;53637.59;;;-143.74;67.98
32853;BME280;20515;51.704;5.700;2022-07-29T12:05:16;53643.72;;;-143.74;66.76
32853;BME280;20515;51.704;5.700;2022-07-29T12:07:41;53639.63;;;-143.74;70.42
32853;BME280;20515;51.704;5.700;2022-07-29T12:10:07;53643.72;;;-143.74;68.64
32853;BME280;20515;51.704;5.700;2022-07-29T12:12:34;53639.63;;;-143.74;68.74
32853;BME280;20515;51.704;5.700;2022-07-29T12:15:16;53639.63;;;-143.74;68.57
32853;BME280;20515;51.704;5.700;2022-07-29T12:17:46;53637.59;;;-143.74;67.67
32853;BME280;20515;51.704;5.700;2022-07-29T12:20:12;53645.75;;;-143.74;69.91
32853;BME280;20515;51.704;5.700;2022-07-29T12:22:42;53641.69;;;-143.74;65.09
32853;BME280;20515;51.704;5.700;2022-07-29T12:25:13;53639.63;;;-143.74;64.46
32853;BME280;20515;51.704;5.700;2022-07-29T12:27:41;53643.72;;;-143.74;67.72
32853;BME280;20515;51.704;5.700;2022-07-29T12:30:11;53641.69;;;-143.74;66.15
32853;BME280;20515;51.704;5.700;2022-07-29T12:32:45;53645.75;;;-143.74;64.71
32853;BME280;20515;51.704;5.700;2022-07-29T12:35:13;53641.69;;;-143.74;64.96
32853;BME280;20515;51.704;5.700;2022-07-29T12:37:41;53643.72;;;-143.74;64.77
32853;BME280;20515;51.704;5.700;2022-07-29T12:40:08;53639.63;;;-143.74;63.89
32853;BME280;20515;51.704;5.700;2022-07-29T12:42:34;53643.72;;;-143.74;66.10
32853;BME280;20515;51.704;5.700;2022-07-29T12:45:00;53645.75;;;-143.74;62.13
32853;BME280;20515;51.704;5.700;2022-07-29T12:47:26;53643.72;;;-143.74;60.68
32853;BME280;20515;51.704;5.700;2022-07-29T12:50:08;53643.72;;;-143.74;61.79
32853;BME280;20515;51.704;5.700;2022-07-29T12:52:35;53641.69;;;-143.74;65.26
32853;BME280;20515;51.704;5.700;2022-07-29T12:55:01;53639.63;;;-143.74;63.97
32853;BME280;20515;51.704;5.700;2022-07-29T12:57:27;53645.75;;;-143.74;59.20
32853;BME280;20515;51.704;5.700;2022-07-29T13:00:22;53641.69;;;-143.74;58.10
32853;BME280;20515;51.704;5.700;2022-07-29T13:02:58;53643.72;;;-143.74;60.08
32853;BME280;20515;51.704;5.700;2022-07-29T13:05:24;53643.72;;;-143.74;59.76
32853;BME280;20515;51.704;5.700;2022-07-29T13:08:15;53641.69;;;-143.74;59.62
32853;BME280;20515;51.704;5.700;2022-07-29T13:10:42;53639.63;;;-143.74;60.89
32853;BME280;20515;51.704;5.700;2022-07-29T13:13:08;53643.72;;;-143.74;63.26
32853;BME280;20515;51.704;5.700;2022-07-29T13:15:35;53641.69;;;-143.74;61.19
32853;BME280;20515;51.704;5.700;2022-07-29T13:18:00;53643.72;;;-143.74;62.01